sensor_id;sensor_type;location;lat;lon;timestamp;pressure;altitude;pressure_sealevel;temperature
47484;BMP280;54076;50.322;18.650;2023-05-07T00:01:26;98058.11;;;5.81
47484;BMP280;54076;50.322;18.650;2023-05-07T00:06:27;98057.77;;;5.75
47484;BMP280;54076;50.322;18.650;2023-05-07T00:11:30;98062.67;;;5.82
47484;BMP280;54076;50.322;18.650;2023-05-07T00:16:31;98064.44;;;5.77
47484;BMP280;54076;50.322;18.650;2023-05-07T00:21:31;98069.78;;;5.76
47484;BMP280;54076;50.322;18.650;2023-05-07T00:26:32;98061.92;;;5.42
47484;BMP280;54076;50.322;18.650;2023-05-07T00:31:33;98060.30;;;5.45
47484;BMP280;54076;50.322;18.650;2023-05-07T00:36:34;98065.89;;;5.63
47484;BMP280;54076;50.322;18.650;2023-05-07T00:41:36;98065.73;;;5.50
47484;BMP280;54076;50.322;18.650;2023-05-07T00:46:37;98073.84;;;5.42
47484;BMP280;54076;50.322;18.650;2023-05-07T00:51:38;98078.82;;;5.41
47484;BMP280;54076;50.322;18.650;2023-05-07T00:56:39;98080.19;;;5.35
47484;BMP280;54076;50.322;18.650;2023-05-07T01:01:40;98080.05;;;5.26
47484;BMP280;54076;50.322;18.650;2023-05-07T01:06:42;98083.70;;;5.27
47484;BMP280;54076;50.322;18.650;2023-05-07T01:11:43;98080.30;;;5.43
47484;BMP280;54076;50.322;18.650;2023-05-07T01:16:44;98088.58;;;5.44
47484;BMP280;54076;50.322;18.650;2023-05-07T01:21:47;98088.77;;;5.49
47484;BMP280;54076;50.322;18.650;2023-05-07T01:26:49;98094.27;;;5.32
47484;BMP280;54076;50.322;18.650;2023-05-07T01:31:51;98092.80;;;5.41
47484;BMP280;54076;50.322;18.650;2023-05-07T01:36:55;98086.92;;;5.41
47484;BMP280;54076;50.322;18.650;2023-05-07T01:41:56;98088.70;;;5.17
47484;BMP280;54076;50.322;18.650;2023-05-07T01:46:58;98094.35;;;5.17
47484;BMP280;54076;50.322;18.650;2023-05-07T01:52:00;98099.33;;;5.12
47484;BMP280;54076;50.322;18.650;2023-05-07T01:57:01;98101.04;;;5.10
47484;BMP280;54076;50.322;18.650;2023-05-07T02:02:02;98100.20;;;5.16
47484;BMP280;54076;50.322;18.650;2023-05-07T02:07:03;98096.77;;;5.16
47484;BMP280;54076;50.322;18.650;2023-05-07T02:12:04;98095.18;;;5.17
47484;BMP280;54076;50.322;18.650;2023-05-07T02:17:06;98095.61;;;5.16
47484;BMP280;54076;50.322;18.650;2023-05-07T02:22:07;98092.47;;;5.07
47484;BMP280;54076;50.322;18.650;2023-05-07T02:27:08;98094.80;;;5.02
47484;BMP280;54076;50.322;18.650;2023-05-07T02:32:09;98092.11;;;4.95
47484;BMP280;54076;50.322;18.650;2023-05-07T02:37:10;98089.02;;;5.12
47484;BMP280;54076;50.322;18.650;2023-05-07T02:42:11;98092.56;;;5.03
47484;BMP280;54076;50.322;18.650;2023-05-07T02:47:14;98092.36;;;5.09
47484;BMP280;54076;50.322;18.650;2023-05-07T02:52:15;98091.65;;;5.17
47484;BMP280;54076;50.322;18.650;2023-05-07T02:57:16;98092.91;;;4.89
47484;BMP280;54076;50.322;18.650;2023-05-07T03:02:17;98098.58;;;4.95
47484;BMP280;54076;50.322;18.650;2023-05-07T03:07:18;98106.79;;;5.06
47484;BMP280;54076;50.322;18.650;2023-05-07T03:12:20;98111.16;;;5.04
47484;BMP280;54076;50.322;18.650;2023-05-07T03:17:21;98118.46;;;5.02
47484;BMP280;54076;50.322;18.650;2023-05-07T03:22:22;98122.48;;;4.81
47484;BMP280;54076;50.322;18.650;2023-05-07T03:27:23;98129.38;;;4.80
47484;BMP280;54076;50.322;18.650;2023-05-07T03:32:24;98134.34;;;4.63
47484;BMP280;54076;50.322;18.650;2023-05-07T03:37:25;98137.75;;;4.51
47484;BMP280;54076;50.322;18.650;2023-05-07T03:42:26;98134.79;;;4.52
47484;BMP280;54076;50.322;18.650;2023-05-07T03:47:27;98137.77;;;4.49
47484;BMP280;54076;50.322;18.650;2023-05-07T03:52:28;98142.00;;;4.47
47484;BMP280;54076;50.322;18.650;2023-05-07T03:57:29;98147.18;;;4.47
47484;BMP280;54076;50.322;18.650;2023-05-07T04:02:30;98150.52;;;4.41
47484;BMP280;54076;50.322;18.650;2023-05-07T04:07:31;98158.71;;;4.31
47484;BMP280;54076;50.322;18.650;2023-05-07T04:12:32;98167.38;;;4.51
47484;BMP280;54076;50.322;18.650;2023-05-07T04:17:33;98170.13;;;4.40
47484;BMP280;54076;50.322;18.650;2023-05-07T04:22:34;98171.73;;;4.12
47484;BMP280;54076;50.322;18.650;2023-05-07T04:27:35;98180.08;;;4.11
47484;BMP280;54076;50.322;18.650;2023-05-07T04:32:36;98189.03;;;4.00
47484;BMP280;54076;50.322;18.650;2023-05-07T04:37:38;98195.52;;;3.91
47484;BMP280;54076;50.322;18.650;2023-05-07T04:42:39;98202.64;;;4.09
47484;BMP280;54076;50.322;18.650;2023-05-07T04:47:40;98213.23;;;4.00
47484;BMP280;54076;50.322;18.650;2023-05-07T04:52:41;98222.49;;;4.21
47484;BMP280;54076;50.322;18.650;2023-05-07T04:57:41;98229.17;;;4.11
47484;BMP280;54076;50.322;18.650;2023-05-07T05:02:42;98237.30;;;4.07
47484;BMP280;54076;50.322;18.650;2023-05-07T05:07:43;98237.70;;;4.28
47484;BMP280;54076;50.322;18.650;2023-05-07T05:12:45;98241.36;;;4.13
47484;BMP280;54076;50.322;18.650;2023-05-07T05:17:46;98242.07;;;4.11
47484;BMP280;54076;50.322;18.650;2023-05-07T05:22:47;98245.39;;;4.07
47484;BMP280;54076;50.322;18.650;2023-05-07T05:27:48;98255.45;;;4.03
47484;BMP280;54076;50.322;18.650;2023-05-07T05:32:49;98263.93;;;3.97
47484;BMP280;54076;50.322;18.650;2023-05-07T05:37:50;98273.41;;;4.00
47484;BMP280;54076;50.322;18.650;2023-05-07T05:42:51;98275.92;;;4.14
47484;BMP280;54076;50.322;18.650;2023-05-07T05:47:52;98284.81;;;4.05
47484;BMP280;54076;50.322;18.650;2023-05-07T05:52:53;98286.11;;;4.02
47484;BMP280;54076;50.322;18.650;2023-05-07T05:57:54;98286.73;;;3.71
47484;BMP280;54076;50.322;18.650;2023-05-07T06:02:55;98299.05;;;3.69
47484;BMP280;54076;50.322;18.650;2023-05-07T06:07:56;98302.73;;;3.81
47484;BMP280;54076;50.322;18.650;2023-05-07T06:12:57;98300.16;;;4.01
47484;BMP280;54076;50.322;18.650;2023-05-07T06:17:58;98298.33;;;3.67
47484;BMP280;54076;50.322;18.650;2023-05-07T06:22:59;98301.88;;;4.14
47484;BMP280;54076;50.322;18.650;2023-05-07T06:28:00;98313.23;;;3.97
47484;BMP280;54076;50.322;18.650;2023-05-07T06:33:01;98314.48;;;3.93
47484;BMP280;54076;50.322;18.650;2023-05-07T06:38:02;98318.07;;;3.79
47484;BMP280;54076;50.322;18.650;2023-05-07T06:43:02;98322.73;;;3.50
47484;BMP280;54076;50.322;18.650;2023-05-07T06:48:04;98328.02;;;3.48
47484;BMP280;54076;50.322;18.650;2023-05-07T06:53:05;98328.65;;;3.73
47484;BMP280;54076;50.322;18.650;2023-05-07T06:58:06;98331.23;;;3.79
47484;BMP280;54076;50.322;18.650;2023-05-07T07:03:07;98340.35;;;4.73
47484;BMP280;54076;50.322;18.650;2023-05-07T07:08:08;98341.33;;;3.98
47484;BMP280;54076;50.322;18.650;2023-05-07T07:13:09;98341.20;;;4.12
47484;BMP280;54076;50.322;18.650;2023-05-07T07:18:10;98346.58;;;4.15
47484;BMP280;54076;50.322;18.650;2023-05-07T07:23:11;98350.53;;;4.32
47484;BMP280;54076;50.322;18.650;2023-05-07T07:28:12;98358.60;;;4.49
47484;BMP280;54076;50.322;18.650;2023-05-07T07:33:13;98365.57;;;4.42
47484;BMP280;54076;50.322;18.650;2023-05-07T07:38:15;98374.33;;;4.56
47484;BMP280;54076;50.322;18.650;2023-05-07T07:43:16;98377.48;;;4.51
47484;BMP280;54076;50.322;18.650;2023-05-07T07:48:17;98382.70;;;5.04
47484;BMP280;54076;50.322;18.650;2023-05-07T07:53:18;98378.25;;;5.12
47484;BMP280;54076;50.322;18.650;2023-05-07T07:58:19;98387.86;;;5.02
47484;BMP280;54076;50.322;18.650;2023-05-07T08:03:20;98391.89;;;5.03
47484;BMP280;54076;50.322;18.650;2023-05-07T08:08:21;98392.22;;;4.91
47484;BMP280;54076;50.322;18.650;2023-05-07T08:13:22;98395.46;;;4.97
47484;BMP280;54076;50.322;18.650;2023-05-07T08:18:23;98395.70;;;5.30
47484;BMP280;54076;50.322;18.650;2023-05-07T08:23:25;98398.73;;;5.03
47484;BMP280;54076;50.322;18.650;2023-05-07T08:28:26;98403.44;;;4.97
47484;BMP280;54076;50.322;18.650;2023-05-07T08:33:27;98410.20;;;5.00
47484;BMP280;54076;50.322;18.650;2023-05-07T08:38:28;98423.64;;;5.37
47484;BMP280;54076;50.322;18.650;2023-05-07T08:43:31;98427.88;;;5.17
47484;BMP280;54076;50.322;18.650;2023-05-07T08:48:33;98429.16;;;5.11
47484;BMP280;54076;50.322;18.650;2023-05-07T08:53:35;98433.35;;;5.58
47484;BMP280;54076;50.322;18.650;2023-05-07T08:58:36;98439.96;;;5.38
47484;BMP280;54076;50.322;18.650;2023-05-07T09:03:38;98441.67;;;5.24
47484;BMP280;54076;50.322;18.650;2023-05-07T09:08:39;98447.00;;;5.48
47484;BMP280;54076;50.322;18.650;2023-05-07T09:13:40;98446.73;;;5.55
47484;BMP280;54076;50.322;18.650;2023-05-07T09:18:44;98453.01;;;6.05
47484;BMP280;54076;50.322;18.650;2023-05-07T09:23:48;98448.05;;;5.99
47484;BMP280;54076;50.322;18.650;2023-05-07T09:28:49;98447.59;;;6.05
47484;BMP280;54076;50.322;18.650;2023-05-07T09:33:50;98463.42;;;5.91
47484;BMP280;54076;50.322;18.650;2023-05-07T09:38:51;98463.17;;;5.64
47484;BMP280;54076;50.322;18.650;2023-05-07T09:43:56;98461.01;;;5.43
47484;BMP280;54076;50.322;18.650;2023-05-07T09:48:57;98469.23;;;5.17
47484;BMP280;54076;50.322;18.650;2023-05-07T09:54:00;98475.82;;;4.84
47484;BMP280;54076;50.322;18.650;2023-05-07T09:59:05;98477.33;;;4.80
47484;BMP280;54076;50.322;18.650;2023-05-07T10:04:08;98477.48;;;5.26
47484;BMP280;54076;50.322;18.650;2023-05-07T10:09:09;98480.11;;;5.25
47484;BMP280;54076;50.322;18.650;2023-05-07T10:14:12;98487.88;;;5.29
47484;BMP280;54076;50.322;18.650;2023-05-07T10:19:14;98491.06;;;5.32
47484;BMP280;54076;50.322;18.650;2023-05-07T10:24:36;98494.31;;;5.12
47484;BMP280;54076;50.322;18.650;2023-05-07T10:30:06;98496.64;;;5.03
47484;BMP280;54076;50.322;18.650;2023-05-07T10:35:31;98509.54;;;5.08
47484;BMP280;54076;50.322;18.650;2023-05-07T10:40:33;98509.39;;;4.86
47484;BMP280;54076;50.322;18.650;2023-05-07T10:45:35;98517.11;;;4.62
47484;BMP280;54076;50.322;18.650;2023-05-07T10:50:40;98517.26;;;4.53
47484;BMP280;54076;50.322;18.650;2023-05-07T10:55:42;98513.05;;;4.97
47484;BMP280;54076;50.322;18.650;2023-05-07T11:00:43;98520.49;;;5.12
47484;BMP280;54076;50.322;18.650;2023-05-07T11:05:44;98519.06;;;5.27
47484;BMP280;54076;50.322;18.650;2023-05-07T11:10:54;98522.72;;;4.81
47484;BMP280;54076;50.322;18.650;2023-05-07T11:15:56;98524.24;;;5.12
47484;BMP280;54076;50.322;18.650;2023-05-07T11:20:58;98530.52;;;5.08
47484;BMP280;54076;50.322;18.650;2023-05-07T11:26:03;98534.20;;;4.91
47484;BMP280;54076;50.322;18.650;2023-05-07T11:31:04;98532.95;;;4.73
47484;BMP280;54076;50.322;18.650;2023-05-07T11:36:07;98543.34;;;4.90
47484;BMP280;54076;50.322;18.650;2023-05-07T11:41:08;98542.45;;;4.86
47484;BMP280;54076;50.322;18.650;2023-05-07T11:46:11;98544.14;;;4.99
47484;BMP280;54076;50.322;18.650;2023-05-07T11:51:12;98545.48;;;4.88
47484;BMP280;54076;50.322;18.650;2023-05-07T11:56:16;98546.18;;;4.61
47484;BMP280;54076;50.322;18.650;2023-05-07T12:01:18;98558.17;;;4.98
47484;BMP280;54076;50.322;18.650;2023-05-07T12:06:19;98564.66;;;5.33
47484;BMP280;54076;50.322;18.650;2023-05-07T12:11:25;98560.98;;;5.26
47484;BMP280;54076;50.322;18.650;2023-05-07T12:16:27;98565.29;;;5.03
47484;BMP280;54076;50.322;18.650;2023-05-07T12:21:29;98570.23;;;5.22
47484;BMP280;54076;50.322;18.650;2023-05-07T12:26:30;98572.82;;;5.09
47484;BMP280;54076;50.322;18.650;2023-05-07T12:31:31;98577.20;;;5.07
47484;BMP280;54076;50.322;18.650;2023-05-07T12:36:40;98574.36;;;4.62
47484;BMP280;54076;50.322;18.650;2023-05-07T12:41:54;98586.38;;;5.09
47484;BMP280;54076;50.322;18.650;2023-05-07T12:46:55;98580.86;;;4.98
47484;BMP280;54076;50.322;18.650;2023-05-07T12:51:56;98583.98;;;5.31
47484;BMP280;54076;50.322;18.650;2023-05-07T12:57:03;98579.19;;;6.02
47484;BMP280;54076;50.322;18.650;2023-05-07T13:02:04;98582.94;;;5.92
47484;BMP280;54076;50.322;18.650;2023-05-07T13:07:05;98582.01;;;5.65
47484;BMP280;54076;50.322;18.650;2023-05-07T13:12:06;98584.91;;;5.41
47484;BMP280;54076;50.322;18.650;2023-05-07T13:17:07;98582.16;;;5.63
47484;BMP280;54076;50.322;18.650;2023-05-07T13:22:08;98585.48;;;5.48
47484;BMP280;54076;50.322;18.650;2023-05-07T13:27:10;98585.95;;;5.48
47484;BMP280;54076;50.322;18.650;2023-05-07T13:32:11;98584.06;;;5.69
47484;BMP280;54076;50.322;18.650;2023-05-07T13:37:12;98585.00;;;5.85
47484;BMP280;54076;50.322;18.650;2023-05-07T13:42:12;98588.38;;;5.27
47484;BMP280;54076;50.322;18.650;2023-05-07T13:47:13;98591.02;;;5.23
47484;BMP280;54076;50.322;18.650;2023-05-07T13:52:16;98585.44;;;5.24
47484;BMP280;54076;50.322;18.650;2023-05-07T13:57:17;98587.27;;;5.02
47484;BMP280;54076;50.322;18.650;2023-05-07T14:02:18;98587.16;;;5.18
47484;BMP280;54076;50.322;18.650;2023-05-07T14:07:19;98590.92;;;5.53
47484;BMP280;54076;50.322;18.650;2023-05-07T14:12:20;98588.63;;;5.36
47484;BMP280;54076;50.322;18.650;2023-05-07T14:17:21;98592.20;;;5.41
47484;BMP280;54076;50.322;18.650;2023-05-07T14:22:23;98595.33;;;5.52
47484;BMP280;54076;50.322;18.650;2023-05-07T14:27:24;98599.17;;;5.40
47484;BMP280;54076;50.322;18.650;2023-05-07T14:32:26;98606.05;;;5.07
47484;BMP280;54076;50.322;18.650;2023-05-07T14:37:27;98613.30;;;4.75
47484;BMP280;54076;50.322;18.650;2023-05-07T14:42:28;98617.25;;;4.54
47484;BMP280;54076;50.322;18.650;2023-05-07T14:47:29;98618.77;;;4.49
47484;BMP280;54076;50.322;18.650;2023-05-07T14:52:30;98628.49;;;4.71
47484;BMP280;54076;50.322;18.650;2023-05-07T14:57:31;98630.00;;;4.52
47484;BMP280;54076;50.322;18.650;2023-05-07T15:02:35;98631.66;;;4.56
47484;BMP280;54076;50.322;18.650;2023-05-07T15:07:36;98632.13;;;4.59
47484;BMP280;54076;50.322;18.650;2023-05-07T15:12:37;98638.21;;;4.55
47484;BMP280;54076;50.322;18.650;2023-05-07T15:17:38;98647.59;;;4.65
47484;BMP280;54076;50.322;18.650;2023-05-07T15:22:39;98646.83;;;4.72
47484;BMP280;54076;50.322;18.650;2023-05-07T15:27:42;98642.09;;;4.66
47484;BMP280;54076;50.322;18.650;2023-05-07T15:32:43;98643.96;;;4.67
47484;BMP280;54076;50.322;18.650;2023-05-07T15:37:44;98649.80;;;4.74
47484;BMP280;54076;50.322;18.650;2023-05-07T15:42:46;98662.36;;;4.57
47484;BMP280;54076;50.322;18.650;2023-05-07T15:47:47;98658.65;;;4.23
47484;BMP280;54076;50.322;18.650;2023-05-07T15:52:48;98659.48;;;4.10
47484;BMP280;54076;50.322;18.650;2023-05-07T15:57:49;98663.41;;;4.23
47484;BMP280;54076;50.322;18.650;2023-05-07T16:02:50;98664.52;;;4.04
47484;BMP280;54076;50.322;18.650;2023-05-07T16:07:51;98662.24;;;4.19
47484;BMP280;54076;50.322;18.650;2023-05-07T16:12:52;98670.63;;;4.25
47484;BMP280;54076;50.322;18.650;2023-05-07T16:17:53;98677.09;;;4.28
47484;BMP280;54076;50.322;18.650;2023-05-07T16:22:57;98678.48;;;4.19
47484;BMP280;54076;50.322;18.650;2023-05-07T16:27:58;98677.56;;;4.19
47484;BMP280;54076;50.322;18.650;2023-05-07T16:32:59;98669.33;;;4.08
47484;BMP280;54076;50.322;18.650;2023-05-07T16:38:00;98668.05;;;4.17
47484;BMP280;54076;50.322;18.650;2023-05-07T16:43:01;98665.95;;;4.26
47484;BMP280;54076;50.322;18.650;2023-05-07T16:48:04;98665.45;;;4.18
47484;BMP280;54076;50.322;18.650;2023-05-07T16:53:05;98667.08;;;4.22
47484;BMP280;54076;50.322;18.650;2023-05-07T16:58:09;98679.63;;;4.15
47484;BMP280;54076;50.322;18.650;2023-05-07T17:03:10;98676.00;;;4.30
47484;BMP280;54076;50.322;18.650;2023-05-07T17:08:11;98672.86;;;4.33
47484;BMP280;54076;50.322;18.650;2023-05-07T17:13:13;98679.50;;;4.40
47484;BMP280;54076;50.322;18.650;2023-05-07T17:18:14;98687.42;;;4.26
47484;BMP280;54076;50.322;18.650;2023-05-07T17:23:15;98685.61;;;4.22
47484;BMP280;54076;50.322;18.650;2023-05-07T17:28:16;98695.21;;;4.11
47484;BMP280;54076;50.322;18.650;2023-05-07T17:33:17;98699.04;;;4.11
47484;BMP280;54076;50.322;18.650;2023-05-07T17:38:18;98704.07;;;4.13
47484;BMP280;54076;50.322;18.650;2023-05-07T17:43:19;98703.80;;;4.07
47484;BMP280;54076;50.322;18.650;2023-05-07T17:48:23;98707.02;;;3.90
47484;BMP280;54076;50.322;18.650;2023-05-07T17:53:24;98712.64;;;4.00
47484;BMP280;54076;50.322;18.650;2023-05-07T17:58:26;98707.29;;;4.00
47484;BMP280;54076;50.322;18.650;2023-05-07T18:03:27;98709.27;;;3.97
47484;BMP280;54076;50.322;18.650;2023-05-07T18:08:30;98720.61;;;4.00
47484;BMP280;54076;50.322;18.650;2023-05-07T18:13:31;98726.64;;;4.01
47484;BMP280;54076;50.322;18.650;2023-05-07T18:18:32;98727.73;;;4.05
47484;BMP280;54076;50.322;18.650;2023-05-07T18:23:35;98720.92;;;4.08
47484;BMP280;54076;50.322;18.650;2023-05-07T18:28:36;98726.29;;;3.98
47484;BMP280;54076;50.322;18.650;2023-05-07T18:33:37;98733.01;;;4.03
47484;BMP280;54076;50.322;18.650;2023-05-07T18:38:38;98734.48;;;3.97
47484;BMP280;54076;50.322;18.650;2023-05-07T18:43:42;98730.20;;;3.82
47484;BMP280;54076;50.322;18.650;2023-05-07T18:48:43;98733.27;;;3.83
47484;BMP280;54076;50.322;18.650;2023-05-07T18:53:44;98738.32;;;3.69
47484;BMP280;54076;50.322;18.650;2023-05-07T18:58:45;98739.59;;;3.70
47484;BMP280;54076;50.322;18.650;2023-05-07T19:03:45;98739.53;;;3.61
47484;BMP280;54076;50.322;18.650;2023-05-07T19:08:46;98749.17;;;3.60
47484;BMP280;54076;50.322;18.650;2023-05-07T19:13:48;98752.83;;;3.79
47484;BMP280;54076;50.322;18.650;2023-05-07T19:18:49;98756.56;;;3.60
47484;BMP280;54076;50.322;18.650;2023-05-07T19:23:50;98755.06;;;3.52
47484;BMP280;54076;50.322;18.650;2023-05-07T19:28:53;98758.94;;;3.50
47484;BMP280;54076;50.322;18.650;2023-05-07T19:33:54;98765.31;;;3.57
47484;BMP280;54076;50.322;18.650;2023-05-07T19:38:55;98768.15;;;3.79
47484;BMP280;54076;50.322;18.650;2023-05-07T19:43:56;98774.39;;;3.91
47484;BMP280;54076;50.322;18.650;2023-05-07T19:48:57;98781.27;;;3.79
47484;BMP280;54076;50.322;18.650;2023-05-07T19:53:58;98783.17;;;3.72
47484;BMP280;54076;50.322;18.650;2023-05-07T19:58:59;98780.27;;;3.73
47484;BMP280;54076;50.322;18.650;2023-05-07T20:04:00;98787.35;;;3.82
47484;BMP280;54076;50.322;18.650;2023-05-07T20:09:01;98789.45;;;3.80
47484;BMP280;54076;50.322;18.650;2023-05-07T20:14:03;98786.98;;;3.60
47484;BMP280;54076;50.322;18.650;2023-05-07T20:19:05;98785.73;;;3.44
47484;BMP280;54076;50.322;18.650;2023-05-07T20:24:06;98786.60;;;3.63
47484;BMP280;54076;50.322;18.650;2023-05-07T20:29:08;98790.67;;;3.57
47484;BMP280;54076;50.322;18.650;2023-05-07T20:34:08;98790.52;;;3.57
47484;BMP280;54076;50.322;18.650;2023-05-07T20:39:10;98800.40;;;3.67
47484;BMP280;54076;50.322;18.650;2023-05-07T20:44:15;98805.05;;;3.73
47484;BMP280;54076;50.322;18.650;2023-05-07T20:49:16;98816.02;;;3.58
47484;BMP280;54076;50.322;18.650;2023-05-07T20:54:17;98819.02;;;3.63
47484;BMP280;54076;50.322;18.650;2023-05-07T20:59:18;98817.27;;;3.60
47484;BMP280;54076;50.322;18.650;2023-05-07T21:04:19;98812.39;;;3.64
47484;BMP280;54076;50.322;18.650;2023-05-07T21:09:20;98816.27;;;3.60
47484;BMP280;54076;50.322;18.650;2023-05-07T21:14:21;98821.63;;;3.61
47484;BMP280;54076;50.322;18.650;2023-05-07T21:19:22;98821.04;;;3.49
47484;BMP280;54076;50.322;18.650;2023-05-07T21:24:24;98823.02;;;3.61
47484;BMP280;54076;50.322;18.650;2023-05-07T21:29:25;98821.11;;;3.53
47484;BMP280;54076;50.322;18.650;2023-05-07T21:34:26;98815.30;;;3.45
47484;BMP280;54076;50.322;18.650;2023-05-07T21:39:27;98813.05;;;3.32
47484;BMP280;54076;50.322;18.650;2023-05-07T21:44:30;98818.45;;;3.06
47484;BMP280;54076;50.322;18.650;2023-05-07T21:49:31;98824.60;;;3.05
47484;BMP280;54076;50.322;18.650;2023-05-07T21:54:32;98825.05;;;2.98
47484;BMP280;54076;50.322;18.650;2023-05-07T21:59:33;98827.86;;;2.98
47484;BMP280;54076;50.322;18.650;2023-05-07T22:04:34;98833.45;;;2.71
47484;BMP280;54076;50.322;18.650;2023-05-07T22:09:35;98839.84;;;2.71
47484;BMP280;54076;50.322;18.650;2023-05-07T22:14:36;98841.36;;;2.35
47484;BMP280;54076;50.322;18.650;2023-05-07T22:19:37;98840.07;;;2.25
47484;BMP280;54076;50.322;18.650;2023-05-07T22:24:38;98841.61;;;2.11
47484;BMP280;54076;50.322;18.650;2023-05-07T22:29:39;98836.21;;;2.19
47484;BMP280;54076;50.322;18.650;2023-05-07T22:34:40;98831.95;;;2.17
47484;BMP280;54076;50.322;18.650;2023-05-07T22:39:41;98830.23;;;2.08
47484;BMP280;54076;50.322;18.650;2023-05-07T22:44:42;98830.09;;;2.13
47484;BMP280;54076;50.322;18.650;2023-05-07T22:49:43;98825.52;;;2.11
47484;BMP280;54076;50.322;18.650;2023-05-07T22:54:44;98825.02;;;2.07
47484;BMP280;54076;50.322;18.650;2023-05-07T22:59:45;98817.01;;;1.96
47484;BMP280;54076;50.322;18.650;2023-05-07T23:04:46;98816.30;;;2.00
47484;BMP280;54076;50.322;18.650;2023-05-07T23:09:47;98813.66;;;1.87
47484;BMP280;54076;50.322;18.650;2023-05-07T23:14:48;98816.85;;;1.94
47484;BMP280;54076;50.322;18.650;2023-05-07T23:19:49;98819.48;;;1.76
47484;BMP280;54076;50.322;18.650;2023-05-07T23:24:50;98824.06;;;1.61
47484;BMP280;54076;50.322;18.650;2023-05-07T23:29:51;98824.60;;;1.62
47484;BMP280;54076;50.322;18.650;2023-05-07T23:34:52;98817.45;;;1.82
47484;BMP280;54076;50.322;18.650;2023-05-07T23:39:55;98820.48;;;2.07
47484;BMP280;54076;50.322;18.650;2023-05-07T23:44:56;98813.83;;;2.06
47484;BMP280;54076;50.322;18.650;2023-05-07T23:49:57;98812.35;;;2.04
47484;BMP280;54076;50.322;18.650;2023-05-07T23:54:58;98810.23;;;1.73
47484;BMP280;54076;50.322;18.650;2023-05-07T23:59:59;98812.29;;;1.52
